sensor_id;sensor_type;location;lat;lon;timestamp;noise_LAeq;noise_LA_min;noise_LA_max;noise_LA01;noise_LA95
69609;Laerm;56815;52.320;4.858;2023-07-29T00:00:06;31.93;29.46;35.12;;
69609;Laerm;56815;52.320;4.858;2023-07-29T00:00:19;32.17;30.02;39.06;;
69609;Laerm;56815;52.320;4.858;2023-07-29T00:00:29;32.33;30.41;34.23;;
69609;Laerm;56815;52.320;4.858;2023-07-29T00:00:40;31.63;30.17;33.94;;
69609;Laerm;56815;52.320;4.858;2023-07-29T00:00:50;31.77;29.97;34.29;;
69609;Laerm;56815;52.320;4.858;2023-07-29T00:01:00;31.61;30.07;33.80;;
69609;Laerm;56815;52.320;4.858;2023-07-29T00:01:11;32.01;29.99;35.48;;
69609;Laerm;56815;52.320;4.858;2023-07-29T00:01:21;34.57;30.67;36.87;;
69609;Laerm;56815;52.320;4.858;2023-07-29T00:01:32;34.55;30.03;42.53;;
69609;Laerm;56815;52.320;4.858;2023-07-29T00:01:42;32.75;30.39;36.54;;
69609;Laerm;56815;52.320;4.858;2023-07-29T00:01:53;35.56;30.61;44.72;;
69609;Laerm;56815;52.320;4.858;2023-07-29T00:02:04;31.69;30.14;34.24;;
69609;Laerm;56815;52.320;4.858;2023-07-29T00:02:14;31.58;30.10;34.04;;
69609;Laerm;56815;52.320;4.858;2023-07-29T00:02:28;31.63;29.81;33.17;;
69609;Laerm;56815;52.320;4.858;2023-07-29T00:02:40;32.05;30.14;34.35;;
69609;Laerm;56815;52.320;4.858;2023-07-29T00:02:51;32.23;30.41;34.01;;
69609;Laerm;56815;52.320;4.858;2023-07-29T00:03:01;32.12;30.56;34.01;;
69609;Laerm;56815;52.320;4.858;2023-07-29T00:03:11;33.23;31.08;36.03;;
69609;Laerm;56815;52.320;4.858;2023-07-29T00:03:22;32.08;29.99;37.09;;
69609;Laerm;56815;52.320;4.858;2023-07-29T00:03:32;31.73;29.71;39.24;;
69609;Laerm;56815;52.320;4.858;2023-07-29T00:03:42;31.93;30.14;42.86;;
69609;Laerm;56815;52.320;4.858;2023-07-29T00:03:53;31.81;29.95;37.93;;
69609;Laerm;56815;52.320;4.858;2023-07-29T00:04:03;32.51;30.41;39.26;;
69609;Laerm;56815;52.320;4.858;2023-07-29T00:04:14;31.84;29.97;39.46;;
69609;Laerm;56815;52.320;4.858;2023-07-29T00:04:25;31.34;29.79;33.70;;
69609;Laerm;56815;52.320;4.858;2023-07-29T00:04:35;31.66;29.84;34.51;;
69609;Laerm;56815;52.320;4.858;2023-07-29T00:04:45;31.87;29.90;43.13;;
69609;Laerm;56815;52.320;4.858;2023-07-29T00:04:56;32.27;30.20;37.11;;
69609;Laerm;56815;52.320;4.858;2023-07-29T00:05:06;31.70;29.74;34.96;;
69609;Laerm;56815;52.320;4.858;2023-07-29T00:05:16;31.44;29.99;33.87;;
69609;Laerm;56815;52.320;4.858;2023-07-29T00:05:26;31.17;29.66;32.51;;
69609;Laerm;56815;52.320;4.858;2023-07-29T00:05:37;31.96;29.90;34.56;;
69609;Laerm;56815;52.320;4.858;2023-07-29T00:05:47;34.61;30.67;40.46;;
69609;Laerm;56815;52.320;4.858;2023-07-29T00:05:58;31.79;29.92;37.84;;
69609;Laerm;56815;52.320;4.858;2023-07-29T00:06:09;31.60;29.92;33.29;;
69609;Laerm;56815;52.320;4.858;2023-07-29T00:06:20;31.85;30.13;37.23;;
69609;Laerm;56815;52.320;4.858;2023-07-29T00:06:30;32.56;30.78;35.29;;
69609;Laerm;56815;52.320;4.858;2023-07-29T00:06:40;31.66;30.08;33.42;;
69609;Laerm;56815;52.320;4.858;2023-07-29T00:06:50;33.07;29.40;48.84;;
69609;Laerm;56815;52.320;4.858;2023-07-29T00:07:01;32.06;30.35;34.77;;
69609;Laerm;56815;52.320;4.858;2023-07-29T00:07:11;33.27;30.21;37.98;;
69609;Laerm;56815;52.320;4.858;2023-07-29T00:07:21;32.28;29.84;37.86;;
69609;Laerm;56815;52.320;4.858;2023-07-29T00:07:31;31.77;29.76;35.72;;
69609;Laerm;56815;52.320;4.858;2023-07-29T00:07:42;32.74;30.77;40.76;;
69609;Laerm;56815;52.320;4.858;2023-07-29T00:07:52;31.81;30.17;34.00;;
69609;Laerm;56815;52.320;4.858;2023-07-29T00:08:02;32.03;30.23;35.39;;
69609;Laerm;56815;52.320;4.858;2023-07-29T00:08:13;31.67;29.98;33.66;;
69609;Laerm;56815;52.320;4.858;2023-07-29T00:08:23;31.45;30.12;33.13;;
69609;Laerm;56815;52.320;4.858;2023-07-29T00:08:33;31.40;29.79;35.31;;
69609;Laerm;56815;52.320;4.858;2023-07-29T00:08:44;32.00;30.23;37.67;;
69609;Laerm;56815;52.320;4.858;2023-07-29T00:08:54;31.03;29.43;32.77;;
69609;Laerm;56815;52.320;4.858;2023-07-29T00:09:04;31.25;29.32;33.31;;
69609;Laerm;56815;52.320;4.858;2023-07-29T00:09:14;30.94;29.15;33.48;;
69609;Laerm;56815;52.320;4.858;2023-07-29T00:09:25;30.76;29.55;32.40;;
69609;Laerm;56815;52.320;4.858;2023-07-29T00:09:35;30.91;29.35;32.66;;
69609;Laerm;56815;52.320;4.858;2023-07-29T00:09:45;30.85;29.20;32.58;;
69609;Laerm;56815;52.320;4.858;2023-07-29T00:09:55;32.42;30.52;34.64;;
69609;Laerm;56815;52.320;4.858;2023-07-29T00:10:06;32.08;30.58;34.24;;
69609;Laerm;56815;52.320;4.858;2023-07-29T00:10:16;33.20;31.00;36.27;;
69609;Laerm;56815;52.320;4.858;2023-07-29T00:10:27;31.91;30.02;34.12;;
69609;Laerm;56815;52.320;4.858;2023-07-29T00:10:37;31.38;29.27;34.40;;
69609;Laerm;56815;52.320;4.858;2023-07-29T00:10:48;31.52;30.13;34.24;;
69609;Laerm;56815;52.320;4.858;2023-07-29T00:10:58;32.00;30.41;34.27;;
69609;Laerm;56815;52.320;4.858;2023-07-29T00:11:08;31.53;30.09;33.37;;
69609;Laerm;56815;52.320;4.858;2023-07-29T00:11:18;31.00;29.58;32.39;;
69609;Laerm;56815;52.320;4.858;2023-07-29T00:11:29;31.07;29.16;32.83;;
69609;Laerm;56815;52.320;4.858;2023-07-29T00:11:40;30.95;29.72;33.17;;
69609;Laerm;56815;52.320;4.858;2023-07-29T00:11:50;31.23;29.32;33.21;;
69609;Laerm;56815;52.320;4.858;2023-07-29T00:12:00;32.38;30.54;34.77;;
69609;Laerm;56815;52.320;4.858;2023-07-29T00:12:11;32.28;30.00;35.07;;
69609;Laerm;56815;52.320;4.858;2023-07-29T00:12:21;31.33;29.77;34.28;;
69609;Laerm;56815;52.320;4.858;2023-07-29T00:12:32;31.60;29.94;33.35;;
69609;Laerm;56815;52.320;4.858;2023-07-29T00:12:42;31.88;30.20;33.73;;
69609;Laerm;56815;52.320;4.858;2023-07-29T00:12:52;31.26;29.53;32.83;;
69609;Laerm;56815;52.320;4.858;2023-07-29T00:13:03;31.08;29.33;34.29;;
69609;Laerm;56815;52.320;4.858;2023-07-29T00:13:14;31.52;29.96;35.83;;
69609;Laerm;56815;52.320;4.858;2023-07-29T00:13:24;32.19;30.38;34.14;;
69609;Laerm;56815;52.320;4.858;2023-07-29T00:13:34;31.25;29.45;33.31;;
69609;Laerm;56815;52.320;4.858;2023-07-29T00:13:44;31.46;30.04;33.35;;
69609;Laerm;56815;52.320;4.858;2023-07-29T00:13:55;31.10;29.34;33.34;;
69609;Laerm;56815;52.320;4.858;2023-07-29T00:14:05;31.34;30.01;34.38;;
69609;Laerm;56815;52.320;4.858;2023-07-29T00:14:15;31.15;29.33;32.66;;
69609;Laerm;56815;52.320;4.858;2023-07-29T00:14:25;31.64;29.93;33.43;;
69609;Laerm;56815;52.320;4.858;2023-07-29T00:14:36;31.19;29.27;33.59;;
69609;Laerm;56815;52.320;4.858;2023-07-29T00:14:46;30.98;29.42;33.24;;
69609;Laerm;56815;52.320;4.858;2023-07-29T00:14:56;30.82;29.28;32.90;;
69609;Laerm;56815;52.320;4.858;2023-07-29T00:15:07;31.50;29.53;33.12;;
69609;Laerm;56815;52.320;4.858;2023-07-29T00:15:17;32.14;30.23;33.82;;
69609;Laerm;56815;52.320;4.858;2023-07-29T00:15:28;31.29;29.69;33.14;;
69609;Laerm;56815;52.320;4.858;2023-07-29T00:15:38;31.91;30.05;36.61;;
69609;Laerm;56815;52.320;4.858;2023-07-29T00:15:48;32.01;29.75;40.19;;
69609;Laerm;56815;52.320;4.858;2023-07-29T00:15:59;31.40;29.70;39.22;;
69609;Laerm;56815;52.320;4.858;2023-07-29T00:16:09;41.12;29.71;62.88;;
69609;Laerm;56815;52.320;4.858;2023-07-29T00:16:19;38.80;29.35;60.66;;
69609;Laerm;56815;52.320;4.858;2023-07-29T00:16:32;31.15;29.29;37.03;;
69609;Laerm;56815;52.320;4.858;2023-07-29T00:16:42;31.16;29.64;34.85;;
69609;Laerm;56815;52.320;4.858;2023-07-29T00:16:53;31.47;29.14;38.76;;
69609;Laerm;56815;52.320;4.858;2023-07-29T00:17:03;33.74;29.40;46.84;;
69609;Laerm;56815;52.320;4.858;2023-07-29T00:17:13;31.62;29.88;38.69;;
69609;Laerm;56815;52.320;4.858;2023-07-29T00:17:24;37.45;29.53;53.73;;
69609;Laerm;56815;52.320;4.858;2023-07-29T00:17:34;31.50;29.30;36.28;;
69609;Laerm;56815;52.320;4.858;2023-07-29T00:17:44;38.22;29.40;52.35;;
69609;Laerm;56815;52.320;4.858;2023-07-29T00:17:54;32.27;29.20;45.34;;
69609;Laerm;56815;52.320;4.858;2023-07-29T00:18:05;30.92;29.34;33.07;;
69609;Laerm;56815;52.320;4.858;2023-07-29T00:18:15;30.78;29.05;34.50;;
69609;Laerm;56815;52.320;4.858;2023-07-29T00:18:25;31.31;29.50;39.75;;
69609;Laerm;56815;52.320;4.858;2023-07-29T00:18:36;31.47;29.23;33.73;;
69609;Laerm;56815;52.320;4.858;2023-07-29T00:18:46;31.98;30.29;34.57;;
69609;Laerm;56815;52.320;4.858;2023-07-29T00:18:56;31.93;29.73;40.20;;
69609;Laerm;56815;52.320;4.858;2023-07-29T00:19:06;31.76;29.77;33.80;;
69609;Laerm;56815;52.320;4.858;2023-07-29T00:19:17;31.83;29.62;38.24;;
69609;Laerm;56815;52.320;4.858;2023-07-29T00:19:27;31.39;29.41;34.13;;
69609;Laerm;56815;52.320;4.858;2023-07-29T00:19:38;30.84;29.17;39.71;;
69609;Laerm;56815;52.320;4.858;2023-07-29T00:19:49;41.17;29.01;62.04;;
69609;Laerm;56815;52.320;4.858;2023-07-29T00:19:59;53.69;29.47;69.07;;
69609;Laerm;56815;52.320;4.858;2023-07-29T00:20:09;38.26;29.38;58.06;;
69609;Laerm;56815;52.320;4.858;2023-07-29T00:20:20;31.70;29.08;38.62;;
69609;Laerm;56815;52.320;4.858;2023-07-29T00:20:30;31.29;29.59;34.92;;
69609;Laerm;56815;52.320;4.858;2023-07-29T00:20:40;31.33;29.58;37.06;;
69609;Laerm;56815;52.320;4.858;2023-07-29T00:20:51;31.51;29.54;43.24;;
69609;Laerm;56815;52.320;4.858;2023-07-29T00:21:01;31.43;29.09;37.18;;
69609;Laerm;56815;52.320;4.858;2023-07-29T00:21:11;31.55;29.61;37.32;;
69609;Laerm;56815;52.320;4.858;2023-07-29T00:21:22;32.11;30.01;37.55;;
69609;Laerm;56815;52.320;4.858;2023-07-29T00:21:32;35.23;29.48;56.51;;
69609;Laerm;56815;52.320;4.858;2023-07-29T00:21:42;32.52;29.81;41.65;;
69609;Laerm;56815;52.320;4.858;2023-07-29T00:21:52;31.36;29.10;39.76;;
69609;Laerm;56815;52.320;4.858;2023-07-29T00:22:03;31.25;29.47;37.33;;
69609;Laerm;56815;52.320;4.858;2023-07-29T00:22:14;30.97;28.96;37.68;;
69609;Laerm;56815;52.320;4.858;2023-07-29T00:22:24;31.11;29.45;34.15;;
69609;Laerm;56815;52.320;4.858;2023-07-29T00:22:34;31.43;29.23;36.72;;
69609;Laerm;56815;52.320;4.858;2023-07-29T00:22:45;31.45;28.83;37.31;;
69609;Laerm;56815;52.320;4.858;2023-07-29T00:22:55;30.61;28.96;33.70;;
69609;Laerm;56815;52.320;4.858;2023-07-29T00:23:06;31.32;28.88;37.44;;
69609;Laerm;56815;52.320;4.858;2023-07-29T00:23:17;48.30;29.57;70.47;;
69609;Laerm;56815;52.320;4.858;2023-07-29T00:23:29;42.86;29.39;63.29;;
69609;Laerm;56815;52.320;4.858;2023-07-29T00:23:39;30.49;29.20;32.51;;
69609;Laerm;56815;52.320;4.858;2023-07-29T00:23:49;30.51;29.05;32.11;;
69609;Laerm;56815;52.320;4.858;2023-07-29T00:24:00;30.64;29.31;33.24;;
69609;Laerm;56815;52.320;4.858;2023-07-29T00:24:11;31.20;29.48;33.09;;
69609;Laerm;56815;52.320;4.858;2023-07-29T00:24:21;30.49;29.06;33.46;;
69609;Laerm;56815;52.320;4.858;2023-07-29T00:24:31;30.19;28.58;31.50;;
69609;Laerm;56815;52.320;4.858;2023-07-29T00:24:42;30.34;28.73;35.17;;
69609;Laerm;56815;52.320;4.858;2023-07-29T00:24:52;31.20;28.84;37.09;;
69609;Laerm;56815;52.320;4.858;2023-07-29T00:25:05;30.77;28.92;35.66;;
69609;Laerm;56815;52.320;4.858;2023-07-29T00:25:16;30.81;28.73;34.64;;
69609;Laerm;56815;52.320;4.858;2023-07-29T00:25:26;30.72;29.15;32.80;;
69609;Laerm;56815;52.320;4.858;2023-07-29T00:25:36;31.46;29.73;34.23;;
69609;Laerm;56815;52.320;4.858;2023-07-29T00:25:47;32.00;30.34;33.84;;
69609;Laerm;56815;52.320;4.858;2023-07-29T00:25:57;31.29;29.46;33.96;;
69609;Laerm;56815;52.320;4.858;2023-07-29T00:26:07;30.83;29.33;33.16;;
69609;Laerm;56815;52.320;4.858;2023-07-29T00:26:17;31.62;29.53;45.10;;
69609;Laerm;56815;52.320;4.858;2023-07-29T00:26:28;30.83;29.17;33.74;;
69609;Laerm;56815;52.320;4.858;2023-07-29T00:26:41;30.82;29.46;32.47;;
69609;Laerm;56815;52.320;4.858;2023-07-29T00:26:51;30.85;29.42;33.72;;
69609;Laerm;56815;52.320;4.858;2023-07-29T00:27:01;30.55;28.83;33.78;;
69609;Laerm;56815;52.320;4.858;2023-07-29T00:27:12;30.55;29.19;32.81;;
69609;Laerm;56815;52.320;4.858;2023-07-29T00:27:22;31.30;29.70;33.62;;
69609;Laerm;56815;52.320;4.858;2023-07-29T00:27:33;31.16;29.70;33.52;;
69609;Laerm;56815;52.320;4.858;2023-07-29T00:27:43;30.44;28.97;32.43;;
69609;Laerm;56815;52.320;4.858;2023-07-29T00:27:56;30.34;28.84;31.96;;
69609;Laerm;56815;52.320;4.858;2023-07-29T00:28:07;30.45;29.04;32.26;;
69609;Laerm;56815;52.320;4.858;2023-07-29T00:28:17;31.45;29.25;47.46;;
69609;Laerm;56815;52.320;4.858;2023-07-29T00:28:28;31.21;29.12;33.78;;
69609;Laerm;56815;52.320;4.858;2023-07-29T00:28:38;30.55;28.91;32.39;;
69609;Laerm;56815;52.320;4.858;2023-07-29T00:28:49;30.88;29.22;32.90;;
69609;Laerm;56815;52.320;4.858;2023-07-29T00:28:59;30.81;29.16;33.03;;
69609;Laerm;56815;52.320;4.858;2023-07-29T00:29:10;30.37;28.72;32.20;;
69609;Laerm;56815;52.320;4.858;2023-07-29T00:29:20;30.30;28.99;32.59;;
69609;Laerm;56815;52.320;4.858;2023-07-29T00:29:30;30.37;28.90;33.15;;
69609;Laerm;56815;52.320;4.858;2023-07-29T00:29:40;30.35;28.88;31.82;;
69609;Laerm;56815;52.320;4.858;2023-07-29T00:29:51;30.39;28.75;34.25;;
69609;Laerm;56815;52.320;4.858;2023-07-29T00:30:01;30.38;28.92;32.12;;
69609;Laerm;56815;52.320;4.858;2023-07-29T00:30:12;30.75;29.01;33.22;;
69609;Laerm;56815;52.320;4.858;2023-07-29T00:30:22;30.83;29.16;33.03;;
69609;Laerm;56815;52.320;4.858;2023-07-29T00:30:32;31.71;29.51;35.54;;
69609;Laerm;56815;52.320;4.858;2023-07-29T00:30:43;30.91;29.25;33.59;;
69609;Laerm;56815;52.320;4.858;2023-07-29T00:30:53;33.87;30.14;39.91;;
69609;Laerm;56815;52.320;4.858;2023-07-29T00:31:03;32.48;29.33;36.29;;
69609;Laerm;56815;52.320;4.858;2023-07-29T00:31:13;30.63;28.71;34.02;;
69609;Laerm;56815;52.320;4.858;2023-07-29T00:31:24;30.06;28.88;31.46;;
69609;Laerm;56815;52.320;4.858;2023-07-29T00:31:34;30.61;28.88;33.44;;
69609;Laerm;56815;52.320;4.858;2023-07-29T00:31:45;30.48;28.73;32.79;;
69609;Laerm;56815;52.320;4.858;2023-07-29T00:31:55;35.79;30.31;46.41;;
69609;Laerm;56815;52.320;4.858;2023-07-29T00:32:05;30.67;28.46;33.44;;
69609;Laerm;56815;52.320;4.858;2023-07-29T00:32:16;30.53;29.47;32.11;;
69609;Laerm;56815;52.320;4.858;2023-07-29T00:32:27;30.58;28.99;32.02;;
69609;Laerm;56815;52.320;4.858;2023-07-29T00:32:37;30.47;28.98;31.61;;
69609;Laerm;56815;52.320;4.858;2023-07-29T00:32:47;31.82;30.09;33.46;;
69609;Laerm;56815;52.320;4.858;2023-07-29T00:32:58;31.31;29.28;33.86;;
69609;Laerm;56815;52.320;4.858;2023-07-29T00:33:08;30.50;29.04;32.09;;
69609;Laerm;56815;52.320;4.858;2023-07-29T00:33:18;30.63;28.98;33.31;;
69609;Laerm;56815;52.320;4.858;2023-07-29T00:33:30;30.33;28.83;36.77;;
69609;Laerm;56815;52.320;4.858;2023-07-29T00:33:40;30.30;28.80;32.77;;
69609;Laerm;56815;52.320;4.858;2023-07-29T00:33:50;30.56;29.16;32.52;;
69609;Laerm;56815;52.320;4.858;2023-07-29T00:34:02;31.31;28.94;33.77;;
69609;Laerm;56815;52.320;4.858;2023-07-29T00:34:13;31.71;30.08;33.76;;
69609;Laerm;56815;52.320;4.858;2023-07-29T00:34:27;31.53;29.62;43.36;;
69609;Laerm;56815;52.320;4.858;2023-07-29T00:34:37;31.10;29.55;32.85;;
69609;Laerm;56815;52.320;4.858;2023-07-29T00:34:48;30.60;29.03;32.68;;
69609;Laerm;56815;52.320;4.858;2023-07-29T00:34:58;30.67;29.00;32.68;;
69609;Laerm;56815;52.320;4.858;2023-07-29T00:35:10;31.33;29.43;33.06;;
69609;Laerm;56815;52.320;4.858;2023-07-29T00:35:21;31.05;29.72;37.71;;
69609;Laerm;56815;52.320;4.858;2023-07-29T00:35:31;30.73;29.40;32.13;;
69609;Laerm;56815;52.320;4.858;2023-07-29T00:35:41;30.78;29.04;34.82;;
69609;Laerm;56815;52.320;4.858;2023-07-29T00:35:52;30.18;28.74;34.03;;
69609;Laerm;56815;52.320;4.858;2023-07-29T00:36:03;30.76;29.09;33.18;;
69609;Laerm;56815;52.320;4.858;2023-07-29T00:36:13;31.65;30.21;33.25;;
69609;Laerm;56815;52.320;4.858;2023-07-29T00:36:23;30.70;29.01;33.59;;
69609;Laerm;56815;52.320;4.858;2023-07-29T00:36:34;30.11;28.63;32.59;;
69609;Laerm;56815;52.320;4.858;2023-07-29T00:36:44;30.15;28.31;33.96;;
69609;Laerm;56815;52.320;4.858;2023-07-29T00:36:55;29.88;28.61;31.52;;
69609;Laerm;56815;52.320;4.858;2023-07-29T00:37:05;30.37;28.74;35.23;;
69609;Laerm;56815;52.320;4.858;2023-07-29T00:37:16;30.99;29.64;33.04;;
69609;Laerm;56815;52.320;4.858;2023-07-29T00:37:27;31.02;29.18;35.08;;
69609;Laerm;56815;52.320;4.858;2023-07-29T00:37:37;30.47;29.01;32.14;;
69609;Laerm;56815;52.320;4.858;2023-07-29T00:37:48;31.06;28.80;33.17;;
69609;Laerm;56815;52.320;4.858;2023-07-29T00:37:58;33.69;31.29;37.75;;
69609;Laerm;56815;52.320;4.858;2023-07-29T00:38:08;31.64;29.57;40.27;;
69609;Laerm;56815;52.320;4.858;2023-07-29T00:38:18;30.35;28.93;32.76;;
69609;Laerm;56815;52.320;4.858;2023-07-29T00:38:29;30.40;29.08;33.35;;
69609;Laerm;56815;52.320;4.858;2023-07-29T00:38:39;30.26;28.76;32.05;;
69609;Laerm;56815;52.320;4.858;2023-07-29T00:38:49;30.37;28.94;34.03;;
69609;Laerm;56815;52.320;4.858;2023-07-29T00:39:00;30.70;28.71;41.31;;
69609;Laerm;56815;52.320;4.858;2023-07-29T00:39:11;30.84;28.98;33.08;;
69609;Laerm;56815;52.320;4.858;2023-07-29T00:39:21;30.73;28.40;35.01;;
69609;Laerm;56815;52.320;4.858;2023-07-29T00:39:32;30.61;28.80;32.55;;
69609;Laerm;56815;52.320;4.858;2023-07-29T00:39:42;31.07;29.52;36.00;;
69609;Laerm;56815;52.320;4.858;2023-07-29T00:39:53;30.81;29.53;33.51;;
69609;Laerm;56815;52.320;4.858;2023-07-29T00:40:04;30.68;28.83;35.10;;
69609;Laerm;56815;52.320;4.858;2023-07-29T00:40:22;30.36;28.61;34.17;;
69609;Laerm;56815;52.320;4.858;2023-07-29T00:40:33;30.54;28.82;34.21;;
69609;Laerm;56815;52.320;4.858;2023-07-29T00:40:44;30.39;28.88;35.74;;
69609;Laerm;56815;52.320;4.858;2023-07-29T00:40:55;30.32;29.06;31.90;;
69609;Laerm;56815;52.320;4.858;2023-07-29T00:41:07;31.27;29.08;40.66;;
69609;Laerm;56815;52.320;4.858;2023-07-29T00:41:18;33.52;30.66;42.01;;
69609;Laerm;56815;52.320;4.858;2023-07-29T00:41:28;32.54;30.18;34.92;;
69609;Laerm;56815;52.320;4.858;2023-07-29T00:41:41;31.86;30.17;33.57;;
69609;Laerm;56815;52.320;4.858;2023-07-29T00:41:52;32.32;30.40;34.29;;
69609;Laerm;56815;52.320;4.858;2023-07-29T00:42:02;31.30;29.65;33.02;;
69609;Laerm;56815;52.320;4.858;2023-07-29T00:42:15;31.21;29.50;34.04;;
69609;Laerm;56815;52.320;4.858;2023-07-29T00:42:26;30.81;29.09;34.18;;
69609;Laerm;56815;52.320;4.858;2023-07-29T00:42:36;31.23;28.55;45.36;;
69609;Laerm;56815;52.320;4.858;2023-07-29T00:42:47;30.37;28.72;32.61;;
69609;Laerm;56815;52.320;4.858;2023-07-29T00:43:01;30.44;28.76;35.22;;
69609;Laerm;56815;52.320;4.858;2023-07-29T00:43:20;30.43;28.65;33.21;;
69609;Laerm;56815;52.320;4.858;2023-07-29T00:43:30;30.98;28.72;37.37;;
69609;Laerm;56815;52.320;4.858;2023-07-29T00:43:40;30.81;28.97;33.40;;
69609;Laerm;56815;52.320;4.858;2023-07-29T00:43:51;30.70;28.89;38.55;;
69609;Laerm;56815;52.320;4.858;2023-07-29T00:44:01;31.36;29.07;35.11;;
69609;Laerm;56815;52.320;4.858;2023-07-29T00:44:11;30.22;28.80;31.85;;
69609;Laerm;56815;52.320;4.858;2023-07-29T00:44:22;31.11;29.21;34.11;;
69609;Laerm;56815;52.320;4.858;2023-07-29T00:44:32;30.82;28.81;32.92;;
69609;Laerm;56815;52.320;4.858;2023-07-29T00:44:42;31.12;28.80;33.37;;
69609;Laerm;56815;52.320;4.858;2023-07-29T00:44:53;30.06;28.38;31.83;;
69609;Laerm;56815;52.320;4.858;2023-07-29T00:45:03;30.47;28.68;32.84;;
69609;Laerm;56815;52.320;4.858;2023-07-29T00:45:16;30.17;28.68;31.96;;
69609;Laerm;56815;52.320;4.858;2023-07-29T00:45:26;30.63;28.78;35.22;;
69609;Laerm;56815;52.320;4.858;2023-07-29T00:45:39;30.49;28.73;33.21;;
69609;Laerm;56815;52.320;4.858;2023-07-29T00:45:52;30.14;28.57;32.54;;
69609;Laerm;56815;52.320;4.858;2023-07-29T00:46:03;30.40;28.95;32.16;;
69609;Laerm;56815;52.320;4.858;2023-07-29T00:46:14;30.40;29.09;32.07;;
69609;Laerm;56815;52.320;4.858;2023-07-29T00:46:25;32.06;30.17;35.35;;
69609;Laerm;56815;52.320;4.858;2023-07-29T00:46:37;31.18;29.17;34.74;;
69609;Laerm;56815;52.320;4.858;2023-07-29T00:46:49;29.82;28.55;32.17;;
69609;Laerm;56815;52.320;4.858;2023-07-29T00:47:00;29.70;28.26;32.90;;
69609;Laerm;56815;52.320;4.858;2023-07-29T00:47:12;29.95;28.78;32.30;;
69609;Laerm;56815;52.320;4.858;2023-07-29T00:47:25;30.04;28.56;33.40;;
69609;Laerm;56815;52.320;4.858;2023-07-29T00:47:35;30.42;28.90;32.53;;
69609;Laerm;56815;52.320;4.858;2023-07-29T00:47:46;30.60;29.31;33.30;;
69609;Laerm;56815;52.320;4.858;2023-07-29T00:47:57;31.44;29.52;40.59;;
69609;Laerm;56815;52.320;4.858;2023-07-29T00:48:07;30.85;29.33;32.95;;
69609;Laerm;56815;52.320;4.858;2023-07-29T00:48:17;30.65;29.18;32.23;;
69609;Laerm;56815;52.320;4.858;2023-07-29T00:48:28;30.59;28.98;34.11;;
69609;Laerm;56815;52.320;4.858;2023-07-29T00:48:39;31.28;29.89;36.08;;
69609;Laerm;56815;52.320;4.858;2023-07-29T00:48:49;30.16;28.40;32.21;;
69609;Laerm;56815;52.320;4.858;2023-07-29T00:48:59;29.85;28.59;31.58;;
69609;Laerm;56815;52.320;4.858;2023-07-29T00:49:10;29.83;28.47;32.66;;
69609;Laerm;56815;52.320;4.858;2023-07-29T00:49:20;29.95;28.57;31.61;;
69609;Laerm;56815;52.320;4.858;2023-07-29T00:49:31;29.77;28.34;32.07;;
69609;Laerm;56815;52.320;4.858;2023-07-29T00:49:45;30.22;28.47;39.50;;
69609;Laerm;56815;52.320;4.858;2023-07-29T00:49:55;29.93;28.50;31.61;;
69609;Laerm;56815;52.320;4.858;2023-07-29T00:50:06;30.30;28.86;32.13;;
69609;Laerm;56815;52.320;4.858;2023-07-29T00:50:16;30.10;28.59;31.62;;
69609;Laerm;56815;52.320;4.858;2023-07-29T00:50:27;30.29;28.76;32.42;;
69609;Laerm;56815;52.320;4.858;2023-07-29T00:50:39;30.68;29.17;33.62;;
69609;Laerm;56815;52.320;4.858;2023-07-29T00:50:49;30.53;28.90;32.65;;
69609;Laerm;56815;52.320;4.858;2023-07-29T00:51:00;30.19;28.79;32.96;;
69609;Laerm;56815;52.320;4.858;2023-07-29T00:51:10;30.93;29.23;32.60;;
69609;Laerm;56815;52.320;4.858;2023-07-29T00:51:21;29.91;28.55;31.75;;
69609;Laerm;56815;52.320;4.858;2023-07-29T00:51:31;30.10;28.61;32.16;;
69609;Laerm;56815;52.320;4.858;2023-07-29T00:51:41;30.70;28.82;32.46;;
69609;Laerm;56815;52.320;4.858;2023-07-29T00:51:52;30.56;29.09;33.93;;
69609;Laerm;56815;52.320;4.858;2023-07-29T00:52:02;30.86;28.76;33.94;;
69609;Laerm;56815;52.320;4.858;2023-07-29T00:52:13;31.11;29.29;33.53;;
69609;Laerm;56815;52.320;4.858;2023-07-29T00:52:25;30.30;28.60;32.58;;
69609;Laerm;56815;52.320;4.858;2023-07-29T00:52:35;30.92;28.97;35.39;;
69609;Laerm;56815;52.320;4.858;2023-07-29T00:52:49;31.72;29.80;35.04;;
69609;Laerm;56815;52.320;4.858;2023-07-29T00:53:00;30.95;29.38;38.64;;
69609;Laerm;56815;52.320;4.858;2023-07-29T00:53:11;30.78;29.21;34.57;;
69609;Laerm;56815;52.320;4.858;2023-07-29T00:53:21;30.55;28.68;38.30;;
69609;Laerm;56815;52.320;4.858;2023-07-29T00:53:32;32.09;28.71;50.65;;
69609;Laerm;56815;52.320;4.858;2023-07-29T00:53:42;31.84;29.39;45.86;;
69609;Laerm;56815;52.320;4.858;2023-07-29T00:53:52;31.61;29.29;42.84;;
69609;Laerm;56815;52.320;4.858;2023-07-29T00:54:03;30.58;29.40;32.04;;
69609;Laerm;56815;52.320;4.858;2023-07-29T00:54:13;30.69;29.17;33.75;;
69609;Laerm;56815;52.320;4.858;2023-07-29T00:54:23;31.00;28.90;35.43;;
69609;Laerm;56815;52.320;4.858;2023-07-29T00:54:34;30.71;29.12;38.48;;
69609;Laerm;56815;52.320;4.858;2023-07-29T00:54:44;31.93;29.22;41.13;;
69609;Laerm;56815;52.320;4.858;2023-07-29T00:54:57;32.41;30.26;35.33;;
69609;Laerm;56815;52.320;4.858;2023-07-29T00:55:07;31.31;29.61;33.04;;
69609;Laerm;56815;52.320;4.858;2023-07-29T00:55:18;31.63;29.17;43.22;;
69609;Laerm;56815;52.320;4.858;2023-07-29T00:55:31;30.74;28.92;34.04;;
69609;Laerm;56815;52.320;4.858;2023-07-29T00:55:45;30.92;29.22;32.60;;
69609;Laerm;56815;52.320;4.858;2023-07-29T00:55:56;30.60;28.97;32.01;;
69609;Laerm;56815;52.320;4.858;2023-07-29T00:56:07;31.50;29.13;35.25;;
69609;Laerm;56815;52.320;4.858;2023-07-29T00:56:17;37.40;30.76;46.81;;
69609;Laerm;56815;52.320;4.858;2023-07-29T00:56:28;33.62;28.84;41.40;;
69609;Laerm;56815;52.320;4.858;2023-07-29T00:56:39;30.16;28.65;32.26;;
69609;Laerm;56815;52.320;4.858;2023-07-29T00:56:50;30.69;28.91;36.48;;
69609;Laerm;56815;52.320;4.858;2023-07-29T00:57:01;30.43;28.55;32.63;;
69609;Laerm;56815;52.320;4.858;2023-07-29T00:57:11;30.21;28.65;33.11;;
69609;Laerm;56815;52.320;4.858;2023-07-29T00:57:24;30.27;28.53;31.84;;
69609;Laerm;56815;52.320;4.858;2023-07-29T00:57:35;30.88;29.03;35.23;;
69609;Laerm;56815;52.320;4.858;2023-07-29T00:57:46;30.57;28.86;32.66;;
69609;Laerm;56815;52.320;4.858;2023-07-29T00:57:58;30.38;28.42;34.22;;
69609;Laerm;56815;52.320;4.858;2023-07-29T00:58:09;30.59;28.61;34.03;;
69609;Laerm;56815;52.320;4.858;2023-07-29T00:58:20;30.84;29.39;34.10;;
69609;Laerm;56815;52.320;4.858;2023-07-29T00:58:30;30.86;29.19;32.42;;
69609;Laerm;56815;52.320;4.858;2023-07-29T00:58:41;30.49;29.17;33.16;;
69609;Laerm;56815;52.320;4.858;2023-07-29T00:58:51;30.88;29.54;33.63;;
69609;Laerm;56815;52.320;4.858;2023-07-29T00:59:08;31.23;29.71;33.13;;
69609;Laerm;56815;52.320;4.858;2023-07-29T00:59:19;31.47;29.12;35.33;;
69609;Laerm;56815;52.320;4.858;2023-07-29T00:59:30;31.13;29.24;33.27;;
69609;Laerm;56815;52.320;4.858;2023-07-29T00:59:42;30.48;29.10;32.21;;
69609;Laerm;56815;52.320;4.858;2023-07-29T00:59:52;31.03;28.63;33.78;;
69609;Laerm;56815;52.320;4.858;2023-07-29T01:00:04;30.93;29.17;32.76;;